Terminal Aerodrome Forecast
Issued by NWS

Home | Current Version | Previous Version | Text Only | Print | Product List | Glossary On
Versions: 1 2 3 4 5 6 7 8 9 10 11 12 13 14 15 16 17 18 19 20 21 22 23 24 25 26 27 28 29 30 31 32 33 34
000
FTUS44 KLIX 282341
TAFHDC
TAF
KHDC 282341Z 2900/2924 00000KT P6SM SKC
     FM291000 00000KT P6SM SCT250
     FM291300 00000KT 3SM BR SCT250
     FM291400 00000KT 5SM BR SCT250 PROB30 2918/2923 VRB15KT 2SM
      TSRA BKN030CB=

USA.gov is the U.S. government's official web portal to all federal, state and local government web resources and services.